ウランバートル の空港の天気 - METARとTAF

チンギスハーン国際空港 ( ZMUB / ULN ) - モンゴル ウランバートル
飛行場実況気象(Metar)
観測時間12/10 13:30 ULAT (12/10 05:30 UTC)
風向・風速不定 1m/s
視程10km以上
天気現象
なし
気温-20℃
湿度59%
気圧1030hPa
METARZMUB 100530Z VRB01MPS CAVOK M20/M26 Q1030 NOSIG RMK QFE664.0 56
過去の天気等 Google飛行場航空写真 Wunderground天気予報

過去48時間のMETAR

飛行場予報(TAF)
発表時間: 12/10 12:40 ULAT (12/10 04:40 UTC)
予報対象時間: 10日14時 ULAT ~ 11日20時 ULAT
風向・風速不定 2m/s
視程10km以上
全天の4割程度の雲 雲底高度 3050m
11日0時 ULAT ~ 11日2時 ULAT に徐々に
視程6000m
11日7時 ULAT ~ 11日9時 ULAT に徐々に
視程4000m
天気現象
11日13時 ULAT ~ 11日15時 ULAT に徐々に
視程6000m
TAF COR ZMUB 100440Z 1006/1112 VRB02MPS 9999 SCT100 TXM17/1007Z TNM31/1023Z
BECMG 1016/1018 6000
BECMG 1023/1101 4000 FU
BECMG 1105/1107 6000